Time;durP1;ratioP1;P1;durP2;ratioP2;P2;SDS_P1;SDS_P2;PMS_P1;PMS_P2;Temp;Humidity;BMP_temperature;BMP_pressure;BME280_temperature;BME280_humidity;BME280_pressure;Samples;Min_cycle;Max_cycle;Signal;HPM_P1;HPM_P2
2022/05/27 00:01:19;;;;;;;27.98;7.03;;;;;;;;;;4999666;28;20026;-70
2022/05/27 00:03:44;;;;;;;26.17;6.60;;;;;;;;;;5003249;28;20025;-70
2022/05/27 00:06:10;;;;;;;18.77;5.00;;;;;;;;;;4985323;28;20030;-70
2022/05/27 00:08:35;;;;;;;26.73;5.85;;;;;;;;;;4978251;28;20274;-71
2022/05/27 00:11:01;;;;;;;20.23;5.53;;;;;;;;;;4982571;28;20105;-71
2022/05/27 00:13:27;;;;;;;22.70;5.53;;;;;;;;;;4999340;28;20140;-71
2022/05/27 00:15:52;;;;;;;17.63;5.32;;;;;;;;;;4969570;28;20499;-71
2022/05/27 00:18:17;;;;;;;15.07;4.30;;;;;;;;;;4983334;28;20034;-70
2022/05/27 00:20:43;;;;;;;15.73;3.58;;;;;;;;;;4970359;28;20507;-70
2022/05/27 00:23:08;;;;;;;14.75;3.55;;;;;;;;;;4999266;28;20018;-70
2022/05/27 00:25:33;;;;;;;14.73;3.75;;;;;;;;;;4965176;28;20245;-71
2022/05/27 00:27:59;;;;;;;13.50;3.25;;;;;;;;;;4981518;28;20037;-70
2022/05/27 00:30:24;;;;;;;12.68;3.65;;;;;;;;;;5000239;28;20100;-72
2022/05/27 00:32:49;;;;;;;15.23;4.15;;;;;;;;;;4986262;28;20049;-71
2022/05/27 00:35:16;;;;;;;14.05;4.28;;;;;;;;;;5002328;28;20180;-71
2022/05/27 00:37:41;;;;;;;15.38;4.22;;;;;;;;;;4967433;28;20072;-70
2022/05/27 00:40:08;;;;;;;10.90;3.50;;;;;;;;;;4998123;28;20845;-71
2022/05/27 00:42:33;;;;;;;14.20;3.83;;;;;;;;;;5000649;28;20136;-71
2022/05/27 00:44:58;;;;;;;17.15;3.67;;;;;;;;;;4983883;28;20022;-70
2022/05/27 00:47:28;;;;;;;14.80;4.38;;;;;;;;;;5000444;28;20061;-70
2022/05/27 00:49:58;;;;;;;15.95;4.68;;;;;;;;;;4984217;28;20029;-71
2022/05/27 00:52:27;;;;;;;18.65;4.38;;;;;;;;;;5003046;28;20021;-70
2022/05/27 00:54:53;;;;;;;18.33;4.70;;;;;;;;;;4981245;28;20120;-71
2022/05/27 00:57:28;;;;;;;23.80;6.25;;;;;;;;;;4984388;28;20079;-70
2022/05/27 00:59:56;;;;;;;33.63;7.25;;;;;;;;;;4980348;28;20452;-71
2022/05/27 01:02:22;;;;;;;22.15;6.78;;;;;;;;;;4999386;28;20033;-71
2022/05/27 01:04:48;;;;;;;37.38;7.60;;;;;;;;;;4980812;28;20395;-70
2022/05/27 01:07:14;;;;;;;34.13;7.82;;;;;;;;;;4984306;28;20196;-70
2022/05/27 01:09:41;;;;;;;35.50;8.00;;;;;;;;;;4979734;28;20572;-70
2022/05/27 01:12:35;;;;;;;30.80;7.15;;;;;;;;;;4999671;28;20049;-70
2022/05/27 01:15:19;;;;;;;41.47;8.30;;;;;;;;;;4981365;28;20030;-70
2022/05/27 01:17:50;;;;;;;32.92;8.30;;;;;;;;;;4984189;28;20032;-70
2022/05/27 01:20:34;;;;;;;36.88;7.75;;;;;;;;;;4998921;28;20018;-70
2022/05/27 01:23:18;;;;;;;32.92;7.68;;;;;;;;;;4983811;28;20163;-71
2022/05/27 01:25:53;;;;;;;28.52;6.80;;;;;;;;;;4980837;28;20508;-70
2022/05/27 01:28:39;;;;;;;30.85;7.40;;;;;;;;;;4996527;28;20022;-70
2022/05/27 01:31:16;;;;;;;36.80;7.25;;;;;;;;;;4981711;28;20022;-71
2022/05/27 01:34:00;;;;;;;24.83;5.95;;;;;;;;;;5000089;28;20385;-70
2022/05/27 01:36:44;;;;;;;29.90;7.07;;;;;;;;;;4998993;28;20048;-70
2022/05/27 01:39:12;;;;;;;31.63;6.28;;;;;;;;;;4981622;28;20021;-70
2022/05/27 01:41:51;;;;;;;26.35;7.22;;;;;;;;;;4978489;28;20388;-69
2022/05/27 01:44:27;;;;;;;23.45;6.43;;;;;;;;;;4997266;28;20057;-70
2022/05/27 01:46:52;;;;;;;26.60;7.20;;;;;;;;;;4983340;28;20104;-71
2022/05/27 01:49:26;;;;;;;27.50;5.85;;;;;;;;;;4998781;28;20030;-70
2022/05/27 01:51:56;;;;;;;21.48;5.72;;;;;;;;;;4999930;28;20018;-72
2022/05/27 01:54:32;;;;;;;28.20;6.32;;;;;;;;;;4996906;28;20072;-69
2022/05/27 01:57:10;;;;;;;28.40;6.40;;;;;;;;;;4979196;28;20026;-72
2022/05/27 01:59:54;;;;;;;23.67;5.78;;;;;;;;;;4978105;28;20111;-70
2022/05/27 02:02:22;;;;;;;27.17;6.30;;;;;;;;;;5003510;28;20053;-71
2022/05/27 02:04:52;;;;;;;25.00;6.30;;;;;;;;;;4979754;28;20029;-71
2022/05/27 02:07:22;;;;;;;35.10;7.72;;;;;;;;;;4984429;28;20026;-71
2022/05/27 02:09:58;;;;;;;28.63;6.40;;;;;;;;;;4977910;28;20202;-70
2022/05/27 02:12:28;;;;;;;29.58;6.05;;;;;;;;;;5001809;28;20018;-69
2022/05/27 02:14:55;;;;;;;25.40;6.03;;;;;;;;;;4982627;28;20403;-72
2022/05/27 02:17:27;;;;;;;27.60;5.95;;;;;;;;;;5006464;28;20017;-71
2022/05/27 02:19:52;;;;;;;29.77;6.38;;;;;;;;;;4985057;28;20091;-70
2022/05/27 02:22:20;;;;;;;24.95;6.72;;;;;;;;;;4989224;28;20468;-71
2022/05/27 02:24:49;;;;;;;24.90;5.95;;;;;;;;;;5001764;28;20091;-70
2022/05/27 02:27:17;;;;;;;28.70;6.65;;;;;;;;;;4985822;28;20080;-71
2022/05/27 02:29:44;;;;;;;28.30;6.57;;;;;;;;;;4982531;28;20018;-71
2022/05/27 02:32:13;;;;;;;25.58;6.05;;;;;;;;;;5005224;28;20014;-71
2022/05/27 02:35:08;;;;;;;27.42;5.93;;;;;;;;;;4985020;28;20041;-70
2022/05/27 02:37:35;;;;;;;28.40;7.40;;;;;;;;;;4984914;28;20496;-71
2022/05/27 02:40:03;;;;;;;25.27;5.75;;;;;;;;;;5000525;28;20108;-71
2022/05/27 02:42:29;;;;;;;23.70;6.32;;;;;;;;;;5003067;28;20111;-69
2022/05/27 02:45:13;;;;;;;20.00;5.90;;;;;;;;;;4981186;28;20033;-70
2022/05/27 02:47:57;;;;;;;26.05;6.70;;;;;;;;;;5001699;28;20021;-72
2022/05/27 02:50:37;;;;;;;19.40;6.57;;;;;;;;;;5002818;28;20029;-71
2022/05/27 02:53:09;;;;;;;19.95;5.60;;;;;;;;;;4986271;28;20017;-71
2022/05/27 02:55:56;;;;;;;17.15;5.82;;;;;;;;;;4997034;28;20028;-70
2022/05/27 02:58:22;;;;;;;24.63;5.88;;;;;;;;;;5004030;28;20476;-71
2022/05/27 03:00:47;;;;;;;20.13;6.07;;;;;;;;;;4967967;28;20117;-71
2022/05/27 03:03:12;;;;;;;22.08;6.03;;;;;;;;;;5003605;28;20041;-70
2022/05/27 03:05:56;;;;;;;19.80;6.50;;;;;;;;;;5000177;28;20113;-70
2022/05/27 03:08:30;;;;;;;16.92;5.15;;;;;;;;;;4983720;28;20021;-70
2022/05/27 03:11:06;;;;;;;17.83;6.20;;;;;;;;;;4979139;28;20079;-69
2022/05/27 03:13:38;;;;;;;22.67;6.35;;;;;;;;;;4984099;28;20034;-72
2022/05/27 03:16:13;;;;;;;18.45;5.40;;;;;;;;;;4983531;28;20754;-71
2022/05/27 03:18:50;;;;;;;22.17;6.25;;;;;;;;;;5000600;28;20108;-70
2022/05/27 03:21:26;;;;;;;16.95;4.70;;;;;;;;;;4984435;28;20126;-70
2022/05/27 03:23:54;;;;;;;14.20;5.22;;;;;;;;;;5000963;28;20343;-71
2022/05/27 03:26:19;;;;;;;14.20;5.10;;;;;;;;;;4978666;28;20387;-71
2022/05/27 03:29:11;;;;;;;20.05;4.68;;;;;;;;;;4999531;28;20101;-70
2022/05/27 03:31:46;;;;;;;16.77;5.53;;;;;;;;;;4981589;28;20026;-70
2022/05/27 03:34:27;;;;;;;17.48;4.75;;;;;;;;;;5002643;28;20104;-70
2022/05/27 03:36:59;;;;;;;17.10;4.50;;;;;;;;;;5001292;28;20558;-71
2022/05/27 03:39:58;;;;;;;15.95;4.60;;;;;;;;;;5000733;28;20181;-71
2022/05/27 03:42:25;;;;;;;16.90;4.93;;;;;;;;;;4901456;28;2126769;-71
2022/05/27 03:44:56;;;;;;;16.20;4.65;;;;;;;;;;4978295;28;20550;-72
2022/05/27 03:47:21;;;;;;;15.27;5.05;;;;;;;;;;4984404;28;20061;-71
2022/05/27 03:49:47;;;;;;;12.07;4.07;;;;;;;;;;4979471;28;20111;-69
2022/05/27 03:52:17;;;;;;;14.40;4.18;;;;;;;;;;4967059;28;20168;-71
2022/05/27 03:54:42;;;;;;;9.80;3.78;;;;;;;;;;4979358;28;20390;-70
2022/05/27 03:57:07;;;;;;;12.43;3.90;;;;;;;;;;4980942;28;20050;-71
2022/05/27 03:59:33;;;;;;;11.20;3.47;;;;;;;;;;4968504;28;20065;-69
2022/05/27 04:01:59;;;;;;;14.23;4.22;;;;;;;;;;4959891;28;20142;-71
2022/05/27 04:04:26;;;;;;;13.23;3.35;;;;;;;;;;4962606;28;20506;-71
2022/05/27 04:06:52;;;;;;;15.57;3.95;;;;;;;;;;4962687;28;20057;-70
2022/05/27 04:09:18;;;;;;;17.65;3.90;;;;;;;;;;4964044;28;20018;-71
2022/05/27 04:11:44;;;;;;;9.48;4.07;;;;;;;;;;4955385;28;20500;-70
2022/05/27 04:14:09;;;;;;;12.48;4.07;;;;;;;;;;4961536;28;20015;-70
2022/05/27 04:16:35;;;;;;;9.98;3.60;;;;;;;;;;4962408;28;20050;-69
2022/05/27 04:19:01;;;;;;;9.35;3.55;;;;;;;;;;4961480;28;20085;-68
2022/05/27 04:21:26;;;;;;;11.00;3.92;;;;;;;;;;4961146;28;20545;-71
2022/05/27 04:23:51;;;;;;;15.93;3.75;;;;;;;;;;4962680;28;20031;-70
2022/05/27 04:26:17;;;;;;;15.40;3.88;;;;;;;;;;4958940;28;20062;-70
2022/05/27 04:28:43;;;;;;;11.20;3.70;;;;;;;;;;4956676;28;20018;-70
2022/05/27 04:31:08;;;;;;;17.05;3.92;;;;;;;;;;4961845;28;20025;-69
2022/05/27 04:33:33;;;;;;;12.70;3.72;;;;;;;;;;4962324;28;20421;-70
2022/05/27 04:35:59;;;;;;;13.48;3.30;;;;;;;;;;4957858;28;20077;-69
2022/05/27 04:38:25;;;;;;;12.38;3.42;;;;;;;;;;4962914;28;20023;-72
2022/05/27 04:40:50;;;;;;;9.38;3.00;;;;;;;;;;4941286;28;20022;-71
2022/05/27 04:43:16;;;;;;;7.90;3.05;;;;;;;;;;4968993;28;20043;-70
2022/05/27 04:45:42;;;;;;;10.20;3.03;;;;;;;;;;4971126;28;20464;-71
2022/05/27 04:48:08;;;;;;;13.50;3.22;;;;;;;;;;4980411;28;20030;-70
2022/05/27 04:50:33;;;;;;;12.20;3.17;;;;;;;;;;4981955;28;20080;-71
2022/05/27 04:52:59;;;;;;;11.23;3.33;;;;;;;;;;4982940;28;20361;-70
2022/05/27 04:55:24;;;;;;;8.88;3.22;;;;;;;;;;4978740;28;20019;-70
2022/05/27 04:57:51;;;;;;;14.23;3.55;;;;;;;;;;4974592;28;20026;-71
2022/05/27 05:00:24;;;;;;;10.90;4.10;;;;;;;;;;4958779;28;20038;-70
2022/05/27 05:02:50;;;;;;;19.40;4.10;;;;;;;;;;4959630;28;20031;-70
2022/05/27 05:05:17;;;;;;;17.63;4.32;;;;;;;;;;4942816;28;20461;-71
2022/05/27 05:07:43;;;;;;;16.17;4.22;;;;;;;;;;4956587;28;20568;-70
2022/05/27 05:10:10;;;;;;;13.05;4.25;;;;;;;;;;4965128;28;20044;-70
2022/05/27 05:12:36;;;;;;;12.52;4.07;;;;;;;;;;4977376;28;20019;-69
2022/05/27 05:15:01;;;;;;;10.35;3.38;;;;;;;;;;4974364;28;20286;-71
2022/05/27 05:17:27;;;;;;;12.02;3.50;;;;;;;;;;4980107;28;20302;-70
2022/05/27 05:19:55;;;;;;;11.98;3.35;;;;;;;;;;4973542;28;20171;-70
2022/05/27 05:22:21;;;;;;;9.80;3.78;;;;;;;;;;4964006;28;20029;-70
2022/05/27 05:24:46;;;;;;;9.73;2.90;;;;;;;;;;4979071;28;20102;-69
2022/05/27 05:27:11;;;;;;;11.45;3.40;;;;;;;;;;4961168;28;20073;-71
2022/05/27 05:29:37;;;;;;;10.82;3.25;;;;;;;;;;4942809;28;20027;-69
2022/05/27 05:32:04;;;;;;;7.20;2.70;;;;;;;;;;4958998;28;20030;-70
2022/05/27 05:34:29;;;;;;;12.73;3.60;;;;;;;;;;4946180;28;20055;-71
2022/05/27 05:36:56;;;;;;;10.68;3.00;;;;;;;;;;4959759;28;20050;-69
2022/05/27 05:39:21;;;;;;;8.40;2.47;;;;;;;;;;4963720;28;20433;-70
2022/05/27 05:41:54;;;;;;;9.48;2.45;;;;;;;;;;4959119;28;20027;-69
2022/05/27 05:44:19;;;;;;;8.45;2.50;;;;;;;;;;5000177;28;20022;-70
2022/05/27 05:46:48;;;;;;;10.82;3.17;;;;;;;;;;4966019;28;20033;-70
2022/05/27 05:49:13;;;;;;;14.98;3.50;;;;;;;;;;4983306;28;20017;-70
2022/05/27 05:51:38;;;;;;;11.63;3.13;;;;;;;;;;4982172;28;20031;-70
2022/05/27 05:54:03;;;;;;;11.00;2.50;;;;;;;;;;4983482;28;20030;-70
2022/05/27 05:56:29;;;;;;;13.13;2.72;;;;;;;;;;4963820;28;20393;-70
2022/05/27 05:58:55;;;;;;;9.90;2.92;;;;;;;;;;4997241;28;20061;-70
2022/05/27 06:01:20;;;;;;;10.85;2.55;;;;;;;;;;5000402;28;20061;-70
2022/05/27 06:03:46;;;;;;;14.40;3.45;;;;;;;;;;5002992;28;20077;-69
2022/05/27 06:06:11;;;;;;;12.40;2.97;;;;;;;;;;4967057;28;20033;-70
2022/05/27 06:08:36;;;;;;;13.88;3.70;;;;;;;;;;4967950;28;20156;-69
2022/05/27 06:11:02;;;;;;;8.52;3.10;;;;;;;;;;4977792;28;20072;-71
2022/05/27 06:13:28;;;;;;;10.48;3.38;;;;;;;;;;4983033;28;20100;-71
2022/05/27 06:15:53;;;;;;;10.45;2.83;;;;;;;;;;4965195;28;20076;-70
2022/05/27 06:18:18;;;;;;;10.70;2.90;;;;;;;;;;5002307;28;20026;-70
2022/05/27 06:20:44;;;;;;;10.68;3.25;;;;;;;;;;5003155;28;20049;-70
2022/05/27 06:23:09;;;;;;;12.80;3.28;;;;;;;;;;5001496;28;20022;-71
2022/05/27 06:25:34;;;;;;;12.88;3.85;;;;;;;;;;4998604;28;20034;-70
2022/05/27 06:36:12;;;;;;;9.73;2.70;;;;;;;;;;5002852;28;20056;-71
2022/05/27 06:38:37;;;;;;;7.60;2.60;;;;;;;;;;4986413;28;20054;-68
2022/05/27 06:41:04;;;;;;;12.70;3.33;;;;;;;;;;4982203;28;20388;-70
2022/05/27 06:43:31;;;;;;;12.00;3.55;;;;;;;;;;4984630;28;20562;-71
2022/05/27 06:45:56;;;;;;;10.38;3.30;;;;;;;;;;5003186;28;20014;-70
2022/05/27 06:48:21;;;;;;;11.02;3.28;;;;;;;;;;5005890;28;20439;-70
2022/05/27 06:50:46;;;;;;;8.88;2.70;;;;;;;;;;4968847;28;20022;-69
2022/05/27 06:53:12;;;;;;;17.17;3.22;;;;;;;;;;4983055;28;20482;-72
2022/05/27 06:55:37;;;;;;;10.88;2.83;;;;;;;;;;4982829;28;20518;-70
2022/05/27 06:58:03;;;;;;;10.77;2.85;;;;;;;;;;4980579;28;20488;-71
2022/05/27 07:00:29;;;;;;;12.98;3.33;;;;;;;;;;5004718;28;20033;-71
2022/05/27 07:02:54;;;;;;;9.60;2.60;;;;;;;;;;4985235;28;20026;-71
2022/05/27 07:05:20;;;;;;;13.35;3.30;;;;;;;;;;4970926;28;20156;-69
2022/05/27 07:07:45;;;;;;;16.15;3.08;;;;;;;;;;5004598;28;20108;-70
2022/05/27 07:10:11;;;;;;;13.38;3.45;;;;;;;;;;4984943;28;20094;-71
2022/05/27 07:12:36;;;;;;;12.77;3.28;;;;;;;;;;4982237;28;20480;-72
2022/05/27 07:15:01;;;;;;;12.63;3.08;;;;;;;;;;5000680;28;20420;-69
2022/05/27 07:17:27;;;;;;;9.48;2.97;;;;;;;;;;4987203;28;20364;-70
2022/05/27 07:19:54;;;;;;;10.13;2.85;;;;;;;;;;4985523;28;20030;-69
2022/05/27 07:22:19;;;;;;;10.65;3.20;;;;;;;;;;4971428;28;20048;-69
2022/05/27 07:24:44;;;;;;;15.45;3.42;;;;;;;;;;5004372;28;20080;-70
2022/05/27 07:27:10;;;;;;;15.07;3.67;;;;;;;;;;5000466;28;20420;-69
2022/05/27 07:29:36;;;;;;;15.55;3.70;;;;;;;;;;5002325;28;20061;-70
2022/05/27 07:32:02;;;;;;;14.85;4.35;;;;;;;;;;4985841;28;20022;-69
2022/05/27 07:34:27;;;;;;;16.67;3.30;;;;;;;;;;5003011;28;20233;-69
2022/05/27 07:36:56;;;;;;;16.02;3.30;;;;;;;;;;4984166;28;20103;-69
2022/05/27 07:39:21;;;;;;;14.15;3.55;;;;;;;;;;4967282;28;20026;-68
2022/05/27 07:41:47;;;;;;;14.80;3.10;;;;;;;;;;5001262;28;20030;-69
2022/05/27 07:44:13;;;;;;;17.15;3.65;;;;;;;;;;4941631;28;20069;-69
2022/05/27 07:46:39;;;;;;;13.77;3.45;;;;;;;;;;4961923;28;20023;-69
2022/05/27 07:49:05;;;;;;;14.50;3.17;;;;;;;;;;4956462;28;20050;-69
2022/05/27 07:51:30;;;;;;;11.73;3.10;;;;;;;;;;4961737;28;20497;-69
2022/05/27 07:53:56;;;;;;;11.80;3.00;;;;;;;;;;4961660;28;20045;-69
2022/05/27 07:56:22;;;;;;;9.73;3.38;;;;;;;;;;4944527;28;20038;-70
2022/05/27 07:58:47;;;;;;;15.40;3.20;;;;;;;;;;4964069;28;20385;-68
2022/05/27 08:01:13;;;;;;;13.30;3.15;;;;;;;;;;4959368;28;20486;-70
2022/05/27 08:03:40;;;;;;;10.13;2.63;;;;;;;;;;4963397;28;20015;-70
2022/05/27 08:06:06;;;;;;;12.25;3.40;;;;;;;;;;4961973;28;20117;-70
2022/05/27 08:08:31;;;;;;;12.77;2.83;;;;;;;;;;4959760;28;20022;-71
2022/05/27 08:10:58;;;;;;;11.20;2.80;;;;;;;;;;4961927;28;20437;-71
2022/05/27 08:13:23;;;;;;;11.48;3.20;;;;;;;;;;4959991;28;20101;-69
2022/05/27 08:15:49;;;;;;;9.40;2.67;;;;;;;;;;4962479;28;20477;-70
2022/05/27 08:18:14;;;;;;;15.70;3.13;;;;;;;;;;4944561;28;20022;-69
2022/05/27 08:20:39;;;;;;;13.25;3.30;;;;;;;;;;4962909;28;20034;-70
2022/05/27 08:23:05;;;;;;;10.77;3.38;;;;;;;;;;4958629;28;20331;-71
2022/05/27 08:25:30;;;;;;;14.00;3.50;;;;;;;;;;4961305;28;20023;-71
2022/05/27 08:27:56;;;;;;;12.65;3.60;;;;;;;;;;4957604;28;20384;-71
2022/05/27 08:30:26;;;;;;;14.93;3.25;;;;;;;;;;4957398;28;20023;-70
2022/05/27 08:32:51;;;;;;;11.57;3.40;;;;;;;;;;4962869;28;20384;-69
2022/05/27 08:38:07;;;;;;;13.15;3.53;;;;;;;;;;4959105;28;20030;-70
2022/05/27 08:40:40;;;;;;;17.77;3.35;;;;;;;;;;4959587;28;20045;-71
2022/05/27 08:43:14;;;;;;;10.20;3.58;;;;;;;;;;4978289;28;20049;-69
2022/05/27 08:45:58;;;;;;;15.30;3.47;;;;;;;;;;4984131;28;20081;-68
2022/05/27 08:48:25;;;;;;;15.52;4.28;;;;;;;;;;4979490;28;20547;-70
2022/05/27 08:50:52;;;;;;;12.55;3.92;;;;;;;;;;4999981;28;20026;-70
2022/05/27 08:53:38;;;;;;;16.00;3.40;;;;;;;;;;4981580;28;20068;-70
2022/05/27 08:59:27;;;;;;;12.70;3.40;;;;;;;;;;5000343;28;20502;-70
2022/05/27 09:01:58;;;;;;;18.60;3.95;;;;;;;;;;5001164;28;20494;-71
2022/05/27 09:04:35;;;;;;;17.05;3.47;;;;;;;;;;4981232;28;20025;-70
2022/05/27 09:07:19;;;;;;;16.27;4.10;;;;;;;;;;4981646;28;20132;-70
2022/05/27 09:09:44;;;;;;;13.80;3.35;;;;;;;;;;4982402;28;20029;-70
2022/05/27 09:12:20;;;;;;;12.32;3.78;;;;;;;;;;4978589;28;20030;-69
2022/05/27 09:14:52;;;;;;;17.92;3.90;;;;;;;;;;4999120;28;20405;-72
2022/05/27 09:17:50;;;;;;;15.15;3.72;;;;;;;;;;4982090;28;20033;-69
2022/05/27 09:20:34;;;;;;;13.88;3.80;;;;;;;;;;4951860;28;20511;-70
2022/05/27 09:23:05;;;;;;;16.05;3.80;;;;;;;;;;4982355;28;20089;-70
2022/05/27 09:25:49;;;;;;;15.68;3.58;;;;;;;;;;4981814;28;20341;-69
2022/05/27 09:28:19;;;;;;;20.60;4.32;;;;;;;;;;4996115;28;20543;-69
2022/05/27 09:30:45;;;;;;;18.50;4.18;;;;;;;;;;5000841;28;20056;-69
2022/05/27 09:33:11;;;;;;;19.95;3.75;;;;;;;;;;4999413;28;20047;-69
2022/05/27 09:35:42;;;;;;;20.90;4.30;;;;;;;;;;4985840;28;20026;-70
2022/05/27 09:38:10;;;;;;;16.35;4.10;;;;;;;;;;4998932;28;20084;-69
2022/05/27 09:40:38;;;;;;;17.33;4.32;;;;;;;;;;5004297;28;20468;-70
2022/05/27 09:43:06;;;;;;;24.27;4.82;;;;;;;;;;4987107;28;20057;-72
2022/05/27 09:45:32;;;;;;;22.88;5.07;;;;;;;;;;4980189;28;21075;-70
2022/05/27 09:47:58;;;;;;;18.95;3.97;;;;;;;;;;4960657;28;20037;-69
2022/05/27 09:50:43;;;;;;;20.70;4.43;;;;;;;;;;4996497;28;20034;-71
2022/05/27 09:53:12;;;;;;;19.50;4.00;;;;;;;;;;4998236;28;20021;-70
2022/05/27 09:55:46;;;;;;;18.00;4.40;;;;;;;;;;4977514;28;20049;-70
2022/05/27 09:58:12;;;;;;;15.70;3.70;;;;;;;;;;4977838;28;20058;-71
2022/05/27 10:00:37;;;;;;;17.65;4.07;;;;;;;;;;5000903;28;20049;-72
2022/05/27 10:03:20;;;;;;;16.63;3.67;;;;;;;;;;4980933;28;20032;-69
2022/05/27 10:05:53;;;;;;;13.93;3.72;;;;;;;;;;4981951;28;20018;-69
2022/05/27 10:08:30;;;;;;;19.63;4.00;;;;;;;;;;4978868;28;20099;-68
2022/05/27 10:11:10;;;;;;;18.25;3.63;;;;;;;;;;4980182;28;20045;-68
2022/05/27 10:13:36;;;;;;;18.20;4.22;;;;;;;;;;4976440;28;20141;-71
2022/05/27 10:16:03;;;;;;;13.15;3.08;;;;;;;;;;4999893;28;20140;-69
2022/05/27 10:18:28;;;;;;;9.43;3.38;;;;;;;;;;4995777;28;20029;-69
2022/05/27 10:20:58;;;;;;;16.23;4.03;;;;;;;;;;4998335;28;20076;-72
2022/05/27 10:23:25;;;;;;;20.95;3.95;;;;;;;;;;4997830;28;20117;-71
2022/05/27 10:25:50;;;;;;;14.63;3.90;;;;;;;;;;4999495;28;20400;-70
2022/05/27 10:28:25;;;;;;;13.77;3.75;;;;;;;;;;4993095;28;20030;-70
2022/05/27 10:30:53;;;;;;;17.15;4.05;;;;;;;;;;4984531;28;20022;-72
2022/05/27 10:33:22;;;;;;;17.35;3.47;;;;;;;;;;4997402;28;20056;-68
2022/05/27 10:35:48;;;;;;;15.30;3.20;;;;;;;;;;4986458;28;20013;-69
2022/05/27 10:38:32;;;;;;;14.77;3.28;;;;;;;;;;4982797;28;20500;-69
2022/05/27 10:41:16;;;;;;;13.30;3.92;;;;;;;;;;5002780;28;20128;-72
2022/05/27 10:43:54;;;;;;;14.85;3.05;;;;;;;;;;4982771;28;20104;-72
2022/05/27 10:46:21;;;;;;;17.13;3.30;;;;;;;;;;4982673;28;20026;-70
2022/05/27 10:49:22;;;;;;;14.70;3.50;;;;;;;;;;4980758;28;20026;-69
2022/05/27 10:52:00;;;;;;;16.65;3.65;;;;;;;;;;4920495;29;20031;-70
2022/05/27 10:54:39;;;;;;;11.80;3.65;;;;;;;;;;4989124;28;20048;-73
2022/05/27 11:02:57;;;;;;;9.48;3.20;;;;;;;;;;5001303;28;20472;-71
2022/05/27 11:05:41;;;;;;;14.23;3.30;;;;;;;;;;4979254;28;20018;-71
2022/05/27 11:08:11;;;;;;;11.70;3.20;;;;;;;;;;4978386;28;20024;-71
2022/05/27 11:10:43;;;;;;;13.27;3.40;;;;;;;;;;4980699;28;20293;-71
2022/05/27 11:16:00;;;;;;;15.18;3.80;;;;;;;;;;4961733;28;20018;-71
2022/05/27 11:18:41;;;;;;;13.48;3.30;;;;;;;;;;4983634;28;20026;-70
2022/05/27 11:21:06;;;;;;;11.95;2.63;;;;;;;;;;5002292;28;20041;-72
2022/05/27 11:23:44;;;;;;;12.57;2.75;;;;;;;;;;5000481;28;20022;-71
2022/05/27 11:26:26;;;;;;;10.65;2.80;;;;;;;;;;4983987;28;20022;-70
2022/05/27 11:28:54;;;;;;;11.60;2.60;;;;;;;;;;5000421;28;20349;-71
2022/05/27 11:31:24;;;;;;;10.32;2.78;;;;;;;;;;4981522;28;20022;-69
2022/05/27 11:33:53;;;;;;;13.68;2.80;;;;;;;;;;5001637;28;20026;-69
2022/05/27 11:36:33;;;;;;;12.02;3.00;;;;;;;;;;5003785;28;20022;-70
2022/05/27 11:39:12;;;;;;;13.52;2.70;;;;;;;;;;4998086;28;20072;-70
2022/05/27 11:41:37;;;;;;;11.25;3.10;;;;;;;;;;5000964;28;20050;-69
2022/05/27 11:44:10;;;;;;;13.88;3.45;;;;;;;;;;4984716;28;20060;-69
2022/05/27 11:46:38;;;;;;;15.35;3.10;;;;;;;;;;4984427;28;20092;-72
2022/05/27 11:49:22;;;;;;;9.82;2.50;;;;;;;;;;4998072;28;20049;-70
2022/05/27 11:51:54;;;;;;;13.02;2.97;;;;;;;;;;4983930;28;20523;-69
2022/05/27 11:54:25;;;;;;;12.80;2.83;;;;;;;;;;5004159;28;20017;-70
2022/05/27 11:56:56;;;;;;;13.55;2.75;;;;;;;;;;5000924;28;20018;-71
2022/05/27 11:59:41;;;;;;;13.13;3.00;;;;;;;;;;5000623;28;20057;-71
2022/05/27 12:02:19;;;;;;;13.18;3.13;;;;;;;;;;4975871;28;20037;-71
2022/05/27 12:04:49;;;;;;;14.32;3.00;;;;;;;;;;4982346;28;20037;-71
2022/05/27 12:07:29;;;;;;;9.77;2.80;;;;;;;;;;4985800;28;20030;-69
2022/05/27 12:09:55;;;;;;;12.23;2.65;;;;;;;;;;4985025;28;20091;-69
2022/05/27 12:12:32;;;;;;;13.02;3.22;;;;;;;;;;4984039;28;20025;-70
2022/05/27 12:15:01;;;;;;;14.27;3.08;;;;;;;;;;4981205;28;20169;-70
2022/05/27 12:17:36;;;;;;;15.75;3.22;;;;;;;;;;4983705;28;20561;-69
2022/05/27 12:20:02;;;;;;;10.75;2.72;;;;;;;;;;5000414;28;20026;-70
2022/05/27 12:22:32;;;;;;;10.40;2.80;;;;;;;;;;4984448;28;20647;-69
2022/05/27 12:25:02;;;;;;;12.20;2.95;;;;;;;;;;4982169;28;20041;-72
2022/05/27 12:27:29;;;;;;;10.57;3.10;;;;;;;;;;4982492;28;20026;-70
2022/05/27 12:29:55;;;;;;;11.13;2.75;;;;;;;;;;4963750;28;20025;-69
2022/05/27 12:32:23;;;;;;;11.18;2.90;;;;;;;;;;4986485;28;20045;-69
2022/05/27 12:34:49;;;;;;;14.20;3.03;;;;;;;;;;4981600;28;20022;-69
2022/05/27 12:37:17;;;;;;;10.25;3.08;;;;;;;;;;4986131;28;20022;-71
2022/05/27 12:39:43;;;;;;;16.50;3.60;;;;;;;;;;4999828;28;20279;-71
2022/05/27 12:42:08;;;;;;;13.40;3.33;;;;;;;;;;4968134;28;20145;-73
2022/05/27 12:44:38;;;;;;;14.43;3.45;;;;;;;;;;4996292;28;20613;-70
2022/05/27 12:47:07;;;;;;;9.90;2.88;;;;;;;;;;4984395;28;20480;-70
2022/05/27 12:49:32;;;;;;;12.88;3.38;;;;;;;;;;4979217;28;20026;-70
2022/05/27 12:51:58;;;;;;;13.75;2.80;;;;;;;;;;5000555;28;20021;-69
2022/05/27 12:54:41;;;;;;;14.23;4.20;;;;;;;;;;4998445;28;20017;-70
2022/05/27 13:03:03;;;;;;;11.27;3.22;;;;;;;;;;5001550;28;20526;-70
2022/05/27 13:05:48;;;;;;;12.50;3.17;;;;;;;;;;4982568;28;20523;-70
2022/05/27 13:08:20;;;;;;;12.05;3.15;;;;;;;;;;5002464;28;20022;-72
2022/05/27 13:10:47;;;;;;;13.85;3.28;;;;;;;;;;4982397;28;20022;-68
2022/05/27 13:13:14;;;;;;;14.38;3.22;;;;;;;;;;5000542;28;20029;-68
2022/05/27 13:15:44;;;;;;;15.30;3.35;;;;;;;;;;5001256;28;20024;-70
2022/05/27 13:18:28;;;;;;;14.95;3.92;;;;;;;;;;4985604;28;20137;-68
2022/05/27 13:20:55;;;;;;;11.95;3.13;;;;;;;;;;4983540;28;20030;-68
2022/05/27 13:23:26;;;;;;;16.88;3.53;;;;;;;;;;4982873;28;20063;-69
2022/05/27 13:26:01;;;;;;;15.90;3.25;;;;;;;;;;4979726;28;20346;-70
2022/05/27 13:28:32;;;;;;;13.90;3.33;;;;;;;;;;4995813;28;20237;-69
2022/05/27 13:31:11;;;;;;;10.20;3.03;;;;;;;;;;5002170;28;20028;-71
2022/05/27 13:33:53;;;;;;;13.10;3.30;;;;;;;;;;4983335;28;20125;-69
2022/05/27 13:36:20;;;;;;;12.35;3.38;;;;;;;;;;4984676;28;20014;-71
2022/05/27 13:38:48;;;;;;;12.38;3.13;;;;;;;;;;4982985;28;20602;-72
2022/05/27 13:41:16;;;;;;;11.80;3.00;;;;;;;;;;4983486;28;20021;-71
2022/05/27 13:43:42;;;;;;;13.65;3.08;;;;;;;;;;4997648;28;20073;-68
2022/05/27 13:46:17;;;;;;;16.00;3.00;;;;;;;;;;4967140;28;20014;-71
2022/05/27 13:48:47;;;;;;;11.85;2.95;;;;;;;;;;5001442;28;20018;-70
2022/05/27 13:51:14;;;;;;;13.90;3.40;;;;;;;;;;5002555;28;20014;-72
2022/05/27 13:53:40;;;;;;;15.07;3.33;;;;;;;;;;5000078;28;20029;-71
2022/05/27 13:56:05;;;;;;;12.95;3.05;;;;;;;;;;4999655;28;20072;-70
2022/05/27 13:58:31;;;;;;;16.43;3.70;;;;;;;;;;4998442;28;20037;-70
2022/05/27 14:00:58;;;;;;;13.25;3.35;;;;;;;;;;4986265;28;20374;-69
2022/05/27 14:03:44;;;;;;;8.95;2.60;;;;;;;;;;5005217;28;20484;-70
2022/05/27 14:06:09;;;;;;;12.30;3.08;;;;;;;;;;4987327;28;20037;-72
2022/05/27 14:08:36;;;;;;;16.85;3.03;;;;;;;;;;5001308;28;20024;-69
2022/05/27 14:11:06;;;;;;;12.85;3.00;;;;;;;;;;4986725;28;20018;-69
2022/05/27 14:13:32;;;;;;;13.77;2.92;;;;;;;;;;5005222;28;20498;-69
2022/05/27 14:15:57;;;;;;;13.68;3.30;;;;;;;;;;4964505;28;20133;-69
2022/05/27 14:18:31;;;;;;;10.38;2.75;;;;;;;;;;5006744;28;20105;-70
2022/05/27 14:23:45;;;;;;;12.52;3.08;;;;;;;;;;5004601;28;20199;-69
2022/05/27 14:26:11;;;;;;;14.55;3.35;;;;;;;;;;4985357;28;20055;-71
2022/05/27 14:28:38;;;;;;;12.30;2.80;;;;;;;;;;4998016;28;20117;-71
2022/05/27 14:31:18;;;;;;;11.32;2.90;;;;;;;;;;5005166;28;20025;-71
2022/05/27 14:33:52;;;;;;;12.55;3.15;;;;;;;;;;5002198;28;20026;-70
2022/05/27 14:36:19;;;;;;;12.35;3.00;;;;;;;;;;4987360;28;20048;-68
2022/05/27 14:38:47;;;;;;;11.98;3.10;;;;;;;;;;5002301;28;20044;-70
2022/05/27 14:41:14;;;;;;;13.60;2.83;;;;;;;;;;5002793;28;20030;-69
2022/05/27 14:43:48;;;;;;;11.75;2.40;;;;;;;;;;4985244;28;20053;-69
2022/05/27 14:46:14;;;;;;;12.25;3.10;;;;;;;;;;5008177;28;20040;-70
2022/05/27 14:48:40;;;;;;;10.30;2.53;;;;;;;;;;4971476;28;20457;-69
2022/05/27 14:51:26;;;;;;;14.00;3.35;;;;;;;;;;5006730;28;20046;-69
2022/05/27 14:53:52;;;;;;;14.75;3.05;;;;;;;;;;4970672;28;20368;-72
2022/05/27 14:56:23;;;;;;;12.85;2.85;;;;;;;;;;4981298;28;20630;-72
2022/05/27 14:58:48;;;;;;;9.95;2.45;;;;;;;;;;5002855;28;20025;-70
2022/05/27 15:01:40;;;;;;;9.85;2.80;;;;;;;;;;4992624;28;20030;-74
2022/05/27 15:04:08;;;;;;;14.32;3.10;;;;;;;;;;5004154;28;20313;-71
2022/05/27 15:06:36;;;;;;;12.30;2.92;;;;;;;;;;5004917;28;20032;-70
2022/05/27 15:09:07;;;;;;;11.65;2.65;;;;;;;;;;4978714;28;20033;-70
2022/05/27 15:11:35;;;;;;;12.27;2.90;;;;;;;;;;4984815;28;20040;-71
2022/05/27 15:14:18;;;;;;;9.65;2.80;;;;;;;;;;4982323;28;20094;-67
2022/05/27 15:16:52;;;;;;;10.60;2.50;;;;;;;;;;4980976;28;20519;-72
2022/05/27 15:19:18;;;;;;;12.13;2.47;;;;;;;;;;5002784;28;20046;-72